createdAt,value
2023-02-16T00:01:28.806Z,31.58
2023-02-16T00:03:58.151Z,33.78
2023-02-16T00:06:27.698Z,32.28
2023-02-16T00:08:57.579Z,31.45
2023-02-16T00:11:47.526Z,31.25
2023-02-16T00:14:16.366Z,30.73
2023-02-16T00:16:44.870Z,30.05
2023-02-16T00:19:19.934Z,29.85
2023-02-16T00:21:48.604Z,30.63
2023-02-16T00:24:17.712Z,30.92
2023-02-16T00:26:47.805Z,31.63
2023-02-16T00:29:21.450Z,32.83
2023-02-16T00:31:50.521Z,32.53
2023-02-16T00:34:38.020Z,31.42
2023-02-16T00:37:08.048Z,29.95
2023-02-16T00:39:37.761Z,30.17
2023-02-16T00:42:11.632Z,30.20
2023-02-16T00:44:43.654Z,29.85
2023-02-16T00:47:20.254Z,30.08
2023-02-16T00:49:50.326Z,30.10
2023-02-16T00:52:33.758Z,28.15
2023-02-16T00:55:04.701Z,31.38
2023-02-16T00:57:37.678Z,29.45
2023-02-16T01:00:13.322Z,29.38
2023-02-16T01:02:42.350Z,30.08
2023-02-16T01:05:11.607Z,32.58
2023-02-16T01:07:56.871Z,28.80
2023-02-16T01:10:44.266Z,28.23
2023-02-16T01:13:14.086Z,29.20
2023-02-16T01:15:43.979Z,28.00
2023-02-16T01:18:14.333Z,27.30
2023-02-16T01:20:42.909Z,30.65
2023-02-16T01:23:11.340Z,30.30
2023-02-16T01:25:41.387Z,29.00
2023-02-16T01:28:19.391Z,28.30
2023-02-16T01:30:48.182Z,27.80
2023-02-16T01:33:16.749Z,28.60
2023-02-16T01:35:45.791Z,28.65
2023-02-16T01:38:18.727Z,27.35
2023-02-16T01:40:53.664Z,30.08
2023-02-16T01:43:26.107Z,31.50
2023-02-16T01:46:00.651Z,35.00
2023-02-16T01:48:30.343Z,32.28
2023-02-16T01:51:04.788Z,29.75
2023-02-16T01:53:35.297Z,30.02
2023-02-16T01:56:07.601Z,29.45
2023-02-16T01:58:42.343Z,30.17
2023-02-16T02:01:36.464Z,29.50
2023-02-16T02:04:29.902Z,29.00
2023-02-16T02:06:58.701Z,29.80
2023-02-16T02:09:30.340Z,28.25
2023-02-16T02:12:03.284Z,29.63
2023-02-16T02:14:37.411Z,29.75
2023-02-16T02:17:10.360Z,31.38
2023-02-16T02:19:45.987Z,30.52
2023-02-16T02:23:00.010Z,33.50
2023-02-16T02:25:48.789Z,28.83
2023-02-16T02:28:21.329Z,29.83
2023-02-16T02:30:55.532Z,30.88
2023-02-16T02:33:42.923Z,29.50
2023-02-16T02:36:21.635Z,29.77
2023-02-16T02:39:00.094Z,29.05
2023-02-16T02:41:52.246Z,28.38
2023-02-16T02:44:24.405Z,29.77
2023-02-16T02:46:53.288Z,30.17
2023-02-16T02:49:22.132Z,29.52
2023-02-16T02:51:51.134Z,28.88
2023-02-16T02:54:39.638Z,28.25
2023-02-16T02:57:27.844Z,29.38
2023-02-16T03:00:17.963Z,28.55
2023-02-16T03:02:48.525Z,29.90
2023-02-16T03:05:18.325Z,28.92
2023-02-16T03:07:48.207Z,30.38
2023-02-16T03:10:36.396Z,31.13
2023-02-16T03:13:06.052Z,30.27
2023-02-16T03:15:36.600Z,30.33
2023-02-16T03:18:24.244Z,31.15
2023-02-16T03:21:11.299Z,30.95
2023-02-16T03:23:58.893Z,31.13
2023-02-16T03:26:46.184Z,30.95
2023-02-16T03:29:18.752Z,30.40
2023-02-16T03:31:50.456Z,28.30
2023-02-16T03:34:19.994Z,31.27
2023-02-16T03:36:50.279Z,31.42
2023-02-16T03:39:19.261Z,29.23
2023-02-16T03:41:50.541Z,31.98
2023-02-16T03:44:19.026Z,30.77
2023-02-16T03:46:50.020Z,30.25
2023-02-16T03:49:19.236Z,32.97
2023-02-16T03:51:47.988Z,33.10
2023-02-16T03:54:16.449Z,32.40
2023-02-16T03:56:45.238Z,32.17
2023-02-16T03:59:13.512Z,31.58
2023-02-16T04:01:42.287Z,31.42
2023-02-16T04:04:12.102Z,29.70
2023-02-16T04:06:40.692Z,30.08
2023-02-16T04:09:09.785Z,29.88
2023-02-16T04:11:55.586Z,28.73
2023-02-16T04:14:24.308Z,31.75
2023-02-16T04:16:52.896Z,30.23
2023-02-16T04:19:25.007Z,29.25
2023-02-16T04:21:54.099Z,29.55
2023-02-16T04:24:23.006Z,30.88
2023-02-16T04:26:51.318Z,32.17
2023-02-16T04:29:20.205Z,29.92
2023-02-16T04:31:50.105Z,29.35
2023-02-16T04:34:18.802Z,29.23
2023-02-16T04:36:48.790Z,31.38
2023-02-16T04:39:17.642Z,31.92
2023-02-16T04:41:46.169Z,31.63
2023-02-16T04:44:14.926Z,31.40
2023-02-16T04:46:43.191Z,32.33
2023-02-16T04:49:12.162Z,30.45
2023-02-16T04:51:40.593Z,33.00
2023-02-16T04:54:10.883Z,31.88
2023-02-16T04:56:39.281Z,30.60
2023-02-16T04:59:08.667Z,31.40
2023-02-16T05:01:37.692Z,32.10
2023-02-16T05:04:06.502Z,34.28
2023-02-16T05:06:35.332Z,33.33
2023-02-16T05:09:04.233Z,34.17
2023-02-16T05:11:51.615Z,33.67
2023-02-16T05:14:41.540Z,31.98
2023-02-16T05:17:11.205Z,34.20
2023-02-16T05:19:39.835Z,31.42
2023-02-16T05:22:09.372Z,32.22
2023-02-16T05:24:38.624Z,32.63
2023-02-16T05:27:10.516Z,30.52
2023-02-16T05:29:39.308Z,32.05
2023-02-16T05:32:07.721Z,32.78
2023-02-16T05:34:36.812Z,35.60
2023-02-16T05:37:05.267Z,34.08
2023-02-16T05:39:34.076Z,33.05
2023-02-16T05:42:02.547Z,33.92
2023-02-16T05:44:32.657Z,31.30
2023-02-16T05:47:01.141Z,32.58
2023-02-16T05:49:29.719Z,31.90
2023-02-16T05:51:58.401Z,32.53
2023-02-16T05:54:28.249Z,32.97
2023-02-16T05:56:56.904Z,35.15
2023-02-16T05:59:25.698Z,36.67
2023-02-16T06:01:55.651Z,34.83
2023-02-16T06:04:24.276Z,35.78
2023-02-16T06:06:52.678Z,34.35
2023-02-16T06:09:21.824Z,33.58
2023-02-16T06:11:50.187Z,34.47
2023-02-16T06:14:21.229Z,33.17
2023-02-16T06:16:51.715Z,34.63
2023-02-16T06:19:22.118Z,34.28
2023-02-16T06:21:50.577Z,32.58
2023-02-16T06:24:19.163Z,32.22
2023-02-16T06:26:47.570Z,31.80
2023-02-16T06:29:16.723Z,33.63
2023-02-16T06:31:45.284Z,33.17
2023-02-16T06:34:13.983Z,35.85
2023-02-16T06:36:43.926Z,36.58
2023-02-16T06:39:12.857Z,35.72
2023-02-16T06:41:41.321Z,37.55
2023-02-16T06:44:13.584Z,38.15
2023-02-16T06:46:43.207Z,34.65
2023-02-16T06:49:13.430Z,38.58
2023-02-16T06:51:43.411Z,36.17
2023-02-16T06:54:12.221Z,36.08
2023-02-16T06:56:40.704Z,37.90
2023-02-16T06:59:09.808Z,36.38
2023-02-16T07:01:38.070Z,37.30
2023-02-16T07:04:07.299Z,36.03
2023-02-16T07:06:35.614Z,35.80
2023-02-16T07:09:06.028Z,32.25
2023-02-16T07:11:34.666Z,34.33
2023-02-16T07:14:03.552Z,34.08
2023-02-16T07:16:32.094Z,31.83
2023-02-16T07:19:01.655Z,33.75
2023-02-16T07:21:30.270Z,33.08
2023-02-16T07:23:58.964Z,35.03
2023-02-16T07:26:29.164Z,32.83
2023-02-16T07:28:57.856Z,32.13
2023-02-16T07:31:26.893Z,32.00
2023-02-16T07:33:55.704Z,33.67
2023-02-16T07:36:24.130Z,33.22
2023-02-16T07:38:53.993Z,30.42
2023-02-16T07:41:22.790Z,33.08
2023-02-16T07:43:53.574Z,33.65
2023-02-16T07:46:21.988Z,32.70
2023-02-16T07:48:50.706Z,32.65
2023-02-16T07:51:23.171Z,33.13
2023-02-16T07:53:52.162Z,33.47
2023-02-16T07:56:21.643Z,34.50
2023-02-16T07:58:50.215Z,32.00
2023-02-16T08:01:20.464Z,32.17
2023-02-16T08:03:49.167Z,30.52
2023-02-16T08:06:18.531Z,32.60
2023-02-16T08:08:48.096Z,31.10
2023-02-16T08:11:18.053Z,29.35
2023-02-16T08:13:46.963Z,29.00
2023-02-16T08:16:17.171Z,29.92
2023-02-16T08:18:47.525Z,29.43
2023-02-16T08:21:17.311Z,29.90
2023-02-16T08:23:47.787Z,31.33
2023-02-16T08:26:18.540Z,29.00
2023-02-16T08:28:50.392Z,30.17
2023-02-16T08:31:20.756Z,29.20
2023-02-16T08:33:51.178Z,28.42
2023-02-16T08:36:20.981Z,29.45
2023-02-16T08:38:52.178Z,29.17
2023-02-16T08:41:22.116Z,29.23
2023-02-16T08:43:51.455Z,28.88
2023-02-16T08:46:20.086Z,29.02
2023-02-16T08:48:50.389Z,30.75
2023-02-16T08:51:20.485Z,29.95
2023-02-16T08:53:49.602Z,29.75
2023-02-16T08:56:18.019Z,26.33
2023-02-16T08:58:47.008Z,26.98
2023-02-16T09:01:16.613Z,29.52
2023-02-16T09:03:47.384Z,29.90
2023-02-16T09:06:20.463Z,27.40
2023-02-16T09:08:52.705Z,28.30
2023-02-16T09:11:21.870Z,28.42
2023-02-16T09:13:51.650Z,28.50
2023-02-16T09:16:22.810Z,27.05
2023-02-16T09:21:23.593Z,26.40
2023-02-16T09:23:54.206Z,28.40
2023-02-16T09:26:24.578Z,26.65
2023-02-16T09:28:54.037Z,26.25
2023-02-16T09:31:27.433Z,26.23
2023-02-16T09:33:58.555Z,29.20
2023-02-16T09:36:29.008Z,28.58
2023-02-16T09:38:58.527Z,27.85
2023-02-16T09:41:36.828Z,30.00
2023-02-16T09:44:15.723Z,29.15
2023-02-16T09:46:44.802Z,28.50
2023-02-16T09:49:22.398Z,26.92
2023-02-16T09:52:00.364Z,27.42
2023-02-16T09:54:35.904Z,29.23
2023-02-16T09:57:09.248Z,28.27
2023-02-16T09:59:44.924Z,27.60
2023-02-16T10:02:40.618Z,27.55
2023-02-16T10:05:18.723Z,27.55
2023-02-16T10:07:59.139Z,27.15
2023-02-16T10:10:33.046Z,26.23
2023-02-16T10:13:05.366Z,26.02
2023-02-16T10:15:34.893Z,25.40
2023-02-16T10:18:09.278Z,25.42
2023-02-16T10:20:40.078Z,26.35
2023-02-16T10:23:16.681Z,27.17
2023-02-16T10:25:48.944Z,26.98
2023-02-16T10:28:21.789Z,24.60
2023-02-16T10:30:54.013Z,25.33
2023-02-16T10:33:34.304Z,25.55
2023-02-16T10:36:05.402Z,26.23
2023-02-16T10:41:14.632Z,24.63
2023-02-16T10:43:46.797Z,26.20
2023-02-16T10:46:21.356Z,26.17
2023-02-16T10:48:50.634Z,24.58
2023-02-16T10:51:19.944Z,24.13
2023-02-16T10:53:54.815Z,25.63
2023-02-16T10:56:34.854Z,24.98
2023-02-16T10:59:05.615Z,25.02
2023-02-16T11:01:38.750Z,25.20
2023-02-16T11:04:08.120Z,25.48
2023-02-16T11:06:36.814Z,24.17
2023-02-16T11:09:07.978Z,23.45
2023-02-16T11:14:09.052Z,23.40
2023-02-16T11:16:37.794Z,22.70
2023-02-16T11:19:09.073Z,26.23
2023-02-16T11:21:47.422Z,26.42
2023-02-16T11:24:28.032Z,23.35
2023-02-16T11:27:05.292Z,25.40
2023-02-16T11:29:35.809Z,27.05
2023-02-16T11:32:10.131Z,26.52
2023-02-16T11:34:42.570Z,27.23
2023-02-16T11:37:16.472Z,26.35
2023-02-16T11:39:52.241Z,25.67
2023-02-16T11:42:28.644Z,25.58
2023-02-16T11:44:58.851Z,23.15
2023-02-16T11:47:29.649Z,26.17
2023-02-16T11:50:20.140Z,26.33
2023-02-16T11:52:49.941Z,24.90
2023-02-16T11:55:27.126Z,25.70
2023-02-16T11:57:57.311Z,26.17
2023-02-16T12:00:28.174Z,28.77
2023-02-16T12:03:18.394Z,32.20
2023-02-16T12:05:55.967Z,35.63
2023-02-16T12:08:44.882Z,35.08
2023-02-16T12:11:28.739Z,49.38
2023-02-16T12:14:05.951Z,33.10
2023-02-16T12:16:38.461Z,34.47
2023-02-16T12:19:20.664Z,29.15
2023-02-16T12:21:51.419Z,31.92
2023-02-16T12:24:32.103Z,31.58
2023-02-16T12:27:04.900Z,29.20
2023-02-16T12:29:45.940Z,27.83
2023-02-16T12:32:35.366Z,28.42
2023-02-16T12:35:22.588Z,25.27
2023-02-16T12:37:57.284Z,25.48
2023-02-16T12:40:32.045Z,26.00
2023-02-16T12:43:26.598Z,26.33
2023-02-16T12:45:57.930Z,27.13
2023-02-16T12:48:36.816Z,26.58
2023-02-16T12:51:10.267Z,27.55
2023-02-16T12:53:45.135Z,30.17
2023-02-16T12:56:18.632Z,26.08
2023-02-16T12:58:53.655Z,27.98
2023-02-16T13:01:25.614Z,28.55
2023-02-16T13:03:57.071Z,30.40
2023-02-16T13:06:30.717Z,26.77
2023-02-16T13:09:07.577Z,28.77
2023-02-16T13:11:38.623Z,27.65
2023-02-16T13:14:16.089Z,26.70
2023-02-16T13:16:48.103Z,25.02
2023-02-16T13:19:17.168Z,26.63
2023-02-16T13:22:20.326Z,25.75
2023-02-16T13:24:59.620Z,26.40
2023-02-16T13:27:34.440Z,26.42
2023-02-16T13:30:17.451Z,28.55
2023-02-16T13:32:57.997Z,30.02
2023-02-16T13:35:43.135Z,30.38
2023-02-16T13:38:25.822Z,28.17
2023-02-16T13:41:15.069Z,28.05
2023-02-16T13:43:45.150Z,27.77
2023-02-16T13:46:20.012Z,30.13
2023-02-16T13:48:50.846Z,27.45
2023-02-16T13:51:20.926Z,58.28
2023-02-16T13:53:56.685Z,39.58
2023-02-16T13:56:36.405Z,33.17
2023-02-16T13:59:49.603Z,31.58
2023-02-16T14:02:57.475Z,33.60
2023-02-16T14:05:38.488Z,33.50
2023-02-16T14:08:21.418Z,31.30
2023-02-16T14:11:12.369Z,29.02
2023-02-16T14:13:51.101Z,28.40
2023-02-16T14:16:30.275Z,30.92
2023-02-16T14:19:02.851Z,29.45
2023-02-16T14:21:37.911Z,28.77
2023-02-16T14:24:08.749Z,31.15
2023-02-16T14:26:53.532Z,37.40
2023-02-16T14:29:23.841Z,35.65
2023-02-16T14:31:56.822Z,33.50
2023-02-16T14:34:30.200Z,31.55
2023-02-16T14:37:31.018Z,31.60
2023-02-16T14:40:26.950Z,31.23
2023-02-16T14:43:04.946Z,33.47
2023-02-16T14:46:07.118Z,31.98
2023-02-16T14:49:20.740Z,41.88
2023-02-16T14:52:18.725Z,41.50
2023-02-16T14:55:26.243Z,34.72
2023-02-16T14:57:57.661Z,33.88
2023-02-16T15:00:30.693Z,33.70
2023-02-16T15:03:02.154Z,32.00
2023-02-16T15:05:33.057Z,32.58
2023-02-16T15:08:13.052Z,31.88
2023-02-16T15:10:41.600Z,32.60
2023-02-16T15:13:09.990Z,31.77
2023-02-16T15:15:45.970Z,36.40
2023-02-16T15:18:17.982Z,38.33
2023-02-16T15:20:48.488Z,38.13
2023-02-16T15:23:22.971Z,37.35
2023-02-16T15:25:58.238Z,36.03
2023-02-16T15:28:27.835Z,36.42
2023-02-16T15:30:58.391Z,35.38
2023-02-16T15:33:32.644Z,37.28
2023-02-16T15:36:03.234Z,32.75
2023-02-16T15:38:34.318Z,31.77
2023-02-16T15:41:05.180Z,31.85
2023-02-16T15:43:37.656Z,29.97
2023-02-16T15:46:08.841Z,29.35
2023-02-16T15:48:39.128Z,31.40
2023-02-16T15:51:13.527Z,34.70
2023-02-16T15:53:52.025Z,32.85
2023-02-16T15:56:36.230Z,32.10
2023-02-16T15:59:06.738Z,33.33
2023-02-16T16:01:36.423Z,34.28
2023-02-16T16:04:08.436Z,32.65
2023-02-16T16:06:38.851Z,37.95
2023-02-16T16:09:15.418Z,37.45
2023-02-16T16:11:44.274Z,41.30
2023-02-16T16:14:13.075Z,43.67
2023-02-16T16:16:42.097Z,42.00
2023-02-16T16:19:16.712Z,42.10
2023-02-16T16:21:51.720Z,36.63
2023-02-16T16:24:35.207Z,40.47
2023-02-16T16:27:07.121Z,42.30
2023-02-16T16:29:38.308Z,44.42
2023-02-16T16:32:08.256Z,41.45
2023-02-16T16:34:39.152Z,38.08
2023-02-16T16:37:26.824Z,37.90
2023-02-16T16:40:05.592Z,35.92
2023-02-16T16:42:34.796Z,36.03
2023-02-16T16:45:07.418Z,38.53
2023-02-16T16:47:39.633Z,37.13
2023-02-16T16:50:31.696Z,37.38
2023-02-16T16:53:00.327Z,36.72
2023-02-16T16:55:32.506Z,36.25
2023-02-16T16:58:03.433Z,35.85
2023-02-16T17:00:35.386Z,36.63
2023-02-16T17:03:06.051Z,38.30
2023-02-16T17:05:40.071Z,37.13
2023-02-16T17:08:09.083Z,34.95
2023-02-16T17:10:38.945Z,36.83
2023-02-16T17:13:08.322Z,38.17
2023-02-16T17:15:41.094Z,40.83
2023-02-16T17:18:11.560Z,38.75
2023-02-16T17:20:41.378Z,40.45
2023-02-16T17:23:13.186Z,41.10
2023-02-16T17:28:11.414Z,41.75
2023-02-16T17:30:39.948Z,44.53
2023-02-16T17:33:09.680Z,46.05
2023-02-16T17:35:39.775Z,48.17
2023-02-16T17:38:11.016Z,46.05
2023-02-16T17:40:39.909Z,43.38
2023-02-16T17:43:13.166Z,43.88
2023-02-16T17:45:42.193Z,45.78
2023-02-16T17:48:17.038Z,44.58
2023-02-16T17:50:45.721Z,45.38
2023-02-16T17:53:17.399Z,44.03
2023-02-16T17:58:16.317Z,43.30
2023-02-16T18:00:45.157Z,43.47
2023-02-16T18:03:14.021Z,44.45
2023-02-16T18:05:42.382Z,41.47
2023-02-16T18:08:11.898Z,44.35
2023-02-16T18:10:51.014Z,43.03
2023-02-16T18:13:20.332Z,42.35
2023-02-16T18:15:50.380Z,43.35
2023-02-16T18:18:20.304Z,44.55
2023-02-16T18:20:48.793Z,44.15
2023-02-16T18:23:17.653Z,44.00
2023-02-16T18:25:47.522Z,44.35
2023-02-16T18:28:18.958Z,43.50
2023-02-16T18:30:48.285Z,44.30
2023-02-16T18:33:17.292Z,42.83
2023-02-16T18:35:45.757Z,43.88
2023-02-16T18:38:14.640Z,44.10
2023-02-16T18:40:43.103Z,41.35
2023-02-16T18:43:13.267Z,42.80
2023-02-16T18:45:42.658Z,42.58
2023-02-16T18:48:11.357Z,40.78
2023-02-16T18:50:39.759Z,39.40
2023-02-16T18:53:08.952Z,39.80
2023-02-16T18:55:37.494Z,40.30
2023-02-16T18:58:08.508Z,39.55
2023-02-16T19:00:39.165Z,43.25
2023-02-16T19:03:07.862Z,41.88
2023-02-16T19:05:36.538Z,42.88
2023-02-16T19:08:05.487Z,41.08
2023-02-16T19:10:34.176Z,40.83
2023-02-16T19:13:03.459Z,41.15
2023-02-16T19:15:33.368Z,42.35
2023-02-16T19:18:03.435Z,43.22
2023-02-16T19:20:31.812Z,42.13
2023-02-16T19:23:00.561Z,42.65
2023-02-16T19:25:29.457Z,46.38
2023-02-16T19:27:58.177Z,45.17
2023-02-16T19:30:26.405Z,43.88
2023-02-16T19:32:55.324Z,43.28
2023-02-16T19:35:25.025Z,44.55
2023-02-16T19:37:54.063Z,44.25
2023-02-16T19:40:22.592Z,43.70
2023-02-16T19:42:51.276Z,43.67
2023-02-16T19:45:19.911Z,45.40
2023-02-16T19:47:51.389Z,42.42
2023-02-16T19:50:19.885Z,42.78
2023-02-16T19:52:50.158Z,41.92
2023-02-16T19:55:18.662Z,39.25
2023-02-16T19:57:47.242Z,40.90
2023-02-16T20:00:16.097Z,40.53
2023-02-16T20:02:45.009Z,37.42
2023-02-16T20:05:13.772Z,39.20
2023-02-16T20:07:42.527Z,38.45
2023-02-16T20:10:12.403Z,36.97
2023-02-16T20:12:41.059Z,39.75
2023-02-16T20:15:12.492Z,40.05
2023-02-16T20:17:41.118Z,38.83
2023-02-16T20:20:10.101Z,41.15
2023-02-16T20:22:38.879Z,39.33
2023-02-16T20:25:08.339Z,38.47
2023-02-16T20:27:38.977Z,39.92
2023-02-16T20:30:08.714Z,41.27
2023-02-16T20:32:37.489Z,41.25
2023-02-16T20:35:07.895Z,40.25
2023-02-16T20:37:36.709Z,42.60
2023-02-16T20:40:06.481Z,39.88
2023-02-16T20:42:35.156Z,39.95
2023-02-16T20:45:05.353Z,39.67
2023-02-16T20:47:34.594Z,42.43
2023-02-16T20:50:03.297Z,41.15
2023-02-16T20:52:32.084Z,42.55
2023-02-16T20:55:00.559Z,41.63
2023-02-16T20:57:29.205Z,42.40
2023-02-16T20:59:57.520Z,42.63
2023-02-16T21:02:27.659Z,43.92
2023-02-16T21:04:56.155Z,42.40
2023-02-16T21:07:27.874Z,42.92
2023-02-16T21:12:27.354Z,41.90
2023-02-16T21:14:55.688Z,42.65
2023-02-16T21:17:24.435Z,41.58
2023-02-16T21:19:54.463Z,40.25
2023-02-16T21:22:24.759Z,43.42
2023-02-16T21:25:09.158Z,41.17
2023-02-16T21:27:38.318Z,40.75
2023-02-16T21:30:10.846Z,43.10
2023-02-16T21:32:39.621Z,42.83
2023-02-16T21:35:10.080Z,43.03
2023-02-16T21:37:39.451Z,40.33
2023-02-16T21:40:28.055Z,42.22
2023-02-16T21:43:05.255Z,41.70
2023-02-16T21:45:33.685Z,42.17
2023-02-16T21:48:19.776Z,41.15
2023-02-16T21:50:49.562Z,43.03
2023-02-16T21:53:18.154Z,42.10
2023-02-16T21:56:04.744Z,41.13
2023-02-16T21:58:36.932Z,41.55
2023-02-16T22:01:05.512Z,40.80
2023-02-16T22:03:34.430Z,42.15
2023-02-16T22:06:05.201Z,42.38
2023-02-16T22:11:08.863Z,39.38
2023-02-16T22:13:38.442Z,41.72
2023-02-16T22:16:11.487Z,42.72
2023-02-16T22:18:40.981Z,42.05
2023-02-16T22:21:10.738Z,41.88
2023-02-16T22:23:40.563Z,41.10
2023-02-16T22:26:09.434Z,40.17
2023-02-16T22:28:38.481Z,39.47
2023-02-16T22:31:08.484Z,38.95
2023-02-16T22:33:37.171Z,41.67
2023-02-16T22:36:14.027Z,40.90
2023-02-16T22:38:42.750Z,40.78
2023-02-16T22:41:12.590Z,39.05
2023-02-16T22:43:42.141Z,39.67
2023-02-16T22:46:14.102Z,36.97
2023-02-16T22:48:42.850Z,36.03
2023-02-16T22:51:14.510Z,38.55
2023-02-16T22:53:43.395Z,37.67
2023-02-16T22:56:14.286Z,36.58
2023-02-16T22:58:42.978Z,37.58
2023-02-16T23:01:13.246Z,38.50
2023-02-16T23:03:43.000Z,39.40
2023-02-16T23:06:17.428Z,37.83
2023-02-16T23:08:46.897Z,36.55
2023-02-16T23:11:15.248Z,36.35
2023-02-16T23:13:43.812Z,38.15
2023-02-16T23:16:14.422Z,39.22
2023-02-16T23:18:44.148Z,37.95
2023-02-16T23:21:18.295Z,37.90
2023-02-16T23:23:47.449Z,37.40
2023-02-16T23:26:16.310Z,36.55
2023-02-16T23:28:45.711Z,37.38
2023-02-16T23:31:14.234Z,37.13
2023-02-16T23:33:43.200Z,36.80
2023-02-16T23:36:11.847Z,38.33
2023-02-16T23:38:41.927Z,38.55
2023-02-16T23:41:12.724Z,37.47
2023-02-16T23:43:41.755Z,38.15
2023-02-16T23:46:11.221Z,37.00
2023-02-16T23:48:40.108Z,36.80
2023-02-16T23:51:10.549Z,37.60
2023-02-16T23:53:41.823Z,37.40
2023-02-16T23:56:13.304Z,33.50
2023-02-16T23:58:42.955Z,37.42
